sensor_id;sensor_type;location;lat;lon;timestamp;temperature;humidity
78479;SHT31;67769;51.972;5.668;2023-04-02T00:01:15;10.5;64.8
78479;SHT31;67769;51.972;5.668;2023-04-02T00:04:04;10.5;64.6
78479;SHT31;67769;51.972;5.668;2023-04-02T00:06:36;10.4;64.8
78479;SHT31;67769;51.972;5.668;2023-04-02T00:09:28;10.4;65.4
78479;SHT31;67769;51.972;5.668;2023-04-02T00:12:15;10.4;65.3
78479;SHT31;67769;51.972;5.668;2023-04-02T00:14:50;10.4;65.2
78479;SHT31;67769;51.972;5.668;2023-04-02T00:17:22;10.4;65.5
78479;SHT31;67769;51.972;5.668;2023-04-02T00:19:57;10.3;65.5
78479;SHT31;67769;51.972;5.668;2023-04-02T00:22:29;10.3;65.4
78479;SHT31;67769;51.972;5.668;2023-04-02T00:25:11;10.3;65.3
78479;SHT31;67769;51.972;5.668;2023-04-02T00:27:42;10.3;65.9
78479;SHT31;67769;51.972;5.668;2023-04-02T00:30:13;10.3;65.8
78479;SHT31;67769;51.972;5.668;2023-04-02T00:32:44;10.3;65.7
78479;SHT31;67769;51.972;5.668;2023-04-02T00:35:19;10.3;66.0
78479;SHT31;67769;51.972;5.668;2023-04-02T00:37:50;10.3;66.0
78479;SHT31;67769;51.972;5.668;2023-04-02T00:40:23;10.3;65.6
78479;SHT31;67769;51.972;5.668;2023-04-02T00:42:57;10.3;65.0
78479;SHT31;67769;51.972;5.668;2023-04-02T00:45:35;10.3;64.6
78479;SHT31;67769;51.972;5.668;2023-04-02T00:48:29;10.3;64.6
78479;SHT31;67769;51.972;5.668;2023-04-02T00:51:12;10.3;64.6
78479;SHT31;67769;51.972;5.668;2023-04-02T00:53:44;10.3;64.1
78479;SHT31;67769;51.972;5.668;2023-04-02T00:56:19;10.3;64.0
78479;SHT31;67769;51.972;5.668;2023-04-02T00:58:55;10.3;64.1
78479;SHT31;67769;51.972;5.668;2023-04-02T01:01:28;10.2;64.0
78479;SHT31;67769;51.972;5.668;2023-04-02T01:04:02;10.2;64.4
78479;SHT31;67769;51.972;5.668;2023-04-02T01:06:35;10.2;64.3
78479;SHT31;67769;51.972;5.668;2023-04-02T01:09:16;10.2;64.4
78479;SHT31;67769;51.972;5.668;2023-04-02T01:12:11;10.2;64.2
78479;SHT31;67769;51.972;5.668;2023-04-02T01:14:54;10.1;64.5
78479;SHT31;67769;51.972;5.668;2023-04-02T01:17:37;10.1;64.4
78479;SHT31;67769;51.972;5.668;2023-04-02T01:20:36;10.1;64.5
78479;SHT31;67769;51.972;5.668;2023-04-02T01:23:14;10.1;65.2
78479;SHT31;67769;51.972;5.668;2023-04-02T01:25:52;10.1;64.7
78479;SHT31;67769;51.972;5.668;2023-04-02T01:28:27;10.1;64.4
78479;SHT31;67769;51.972;5.668;2023-04-02T01:31:02;10.1;64.6
78479;SHT31;67769;51.972;5.668;2023-04-02T01:33:34;10.1;64.5
78479;SHT31;67769;51.972;5.668;2023-04-02T01:36:13;10.2;64.6
78479;SHT31;67769;51.972;5.668;2023-04-02T01:38:51;10.3;64.6
78479;SHT31;67769;51.972;5.668;2023-04-02T01:41:28;10.3;63.2
78479;SHT31;67769;51.972;5.668;2023-04-02T01:44:08;10.3;62.7
78479;SHT31;67769;51.972;5.668;2023-04-02T01:46:41;10.3;62.6
78479;SHT31;67769;51.972;5.668;2023-04-02T01:49:15;10.3;62.6
78479;SHT31;67769;51.972;5.668;2023-04-02T01:51:50;10.3;62.6
78479;SHT31;67769;51.972;5.668;2023-04-02T01:54:23;10.3;62.9
78479;SHT31;67769;51.972;5.668;2023-04-02T01:56:55;10.3;62.4
78479;SHT31;67769;51.972;5.668;2023-04-02T01:59:26;10.3;62.3
78479;SHT31;67769;51.972;5.668;2023-04-02T02:02:02;10.3;62.1
78479;SHT31;67769;51.972;5.668;2023-04-02T02:04:33;10.3;62.8
78479;SHT31;67769;51.972;5.668;2023-04-02T02:07:04;10.3;62.5
78479;SHT31;67769;51.972;5.668;2023-04-02T02:09:36;10.3;62.3
78479;SHT31;67769;51.972;5.668;2023-04-02T02:12:12;10.2;62.2
78479;SHT31;67769;51.972;5.668;2023-04-02T02:14:47;10.2;62.3
78479;SHT31;67769;51.972;5.668;2023-04-02T02:17:23;10.1;62.2
78479;SHT31;67769;51.972;5.668;2023-04-02T02:19:58;10.1;62.7
78479;SHT31;67769;51.972;5.668;2023-04-02T02:22:32;10.1;62.3
78479;SHT31;67769;51.972;5.668;2023-04-02T02:25:08;10.0;62.2
78479;SHT31;67769;51.972;5.668;2023-04-02T02:27:53;10.0;62.4
78479;SHT31;67769;51.972;5.668;2023-04-02T02:30:31;9.9;62.4
78479;SHT31;67769;51.972;5.668;2023-04-02T02:33:05;9.9;62.2
78479;SHT31;67769;51.972;5.668;2023-04-02T02:35:43;9.9;62.3
78479;SHT31;67769;51.972;5.668;2023-04-02T02:38:33;9.8;62.3
78479;SHT31;67769;51.972;5.668;2023-04-02T02:41:08;9.8;62.4
78479;SHT31;67769;51.972;5.668;2023-04-02T02:43:50;9.7;62.5
78479;SHT31;67769;51.972;5.668;2023-04-02T02:46:24;9.7;62.8
78479;SHT31;67769;51.972;5.668;2023-04-02T02:48:57;9.7;63.1
78479;SHT31;67769;51.972;5.668;2023-04-02T02:51:40;9.6;63.0
78479;SHT31;67769;51.972;5.668;2023-04-02T02:54:13;9.6;62.7
78479;SHT31;67769;51.972;5.668;2023-04-02T02:56:47;9.6;62.8
78479;SHT31;67769;51.972;5.668;2023-04-02T02:59:20;9.5;63.3
78479;SHT31;67769;51.972;5.668;2023-04-02T03:01:51;9.5;63.0
78479;SHT31;67769;51.972;5.668;2023-04-02T03:04:23;9.5;63.3
78479;SHT31;67769;51.972;5.668;2023-04-02T03:06:57;9.4;63.0
78479;SHT31;67769;51.972;5.668;2023-04-02T03:09:35;9.4;63.5
78479;SHT31;67769;51.972;5.668;2023-04-02T03:12:20;9.4;63.4
78479;SHT31;67769;51.972;5.668;2023-04-02T03:15:01;9.4;63.3
78479;SHT31;67769;51.972;5.668;2023-04-02T03:17:36;9.3;63.7
78479;SHT31;67769;51.972;5.668;2023-04-02T03:20:15;9.3;63.1
78479;SHT31;67769;51.972;5.668;2023-04-02T03:22:55;9.3;63.6
78479;SHT31;67769;51.972;5.668;2023-04-02T03:25:34;9.3;63.4
78479;SHT31;67769;51.972;5.668;2023-04-02T03:28:14;9.3;63.3
78479;SHT31;67769;51.972;5.668;2023-04-02T03:30:49;9.3;63.0
78479;SHT31;67769;51.972;5.668;2023-04-02T03:33:24;9.3;63.5
78479;SHT31;67769;51.972;5.668;2023-04-02T03:36:00;9.3;63.2
78479;SHT31;67769;51.972;5.668;2023-04-02T03:38:40;9.2;63.3
78479;SHT31;67769;51.972;5.668;2023-04-02T03:41:17;9.2;63.5
78479;SHT31;67769;51.972;5.668;2023-04-02T03:43:51;9.2;63.6
78479;SHT31;67769;51.972;5.668;2023-04-02T03:46:29;9.2;64.2
78479;SHT31;67769;51.972;5.668;2023-04-02T03:49:02;9.2;63.7
78479;SHT31;67769;51.972;5.668;2023-04-02T03:51:39;9.2;63.6
78479;SHT31;67769;51.972;5.668;2023-04-02T03:54:14;9.2;63.4
78479;SHT31;67769;51.972;5.668;2023-04-02T03:56:45;9.2;63.7
78479;SHT31;67769;51.972;5.668;2023-04-02T03:59:26;9.2;63.3
78479;SHT31;67769;51.972;5.668;2023-04-02T04:02:01;9.2;62.7
78479;SHT31;67769;51.972;5.668;2023-04-02T04:04:40;9.2;62.9
78479;SHT31;67769;51.972;5.668;2023-04-02T04:07:21;9.2;62.7
78479;SHT31;67769;51.972;5.668;2023-04-02T04:09:55;9.2;61.8
78479;SHT31;67769;51.972;5.668;2023-04-02T04:12:30;9.2;61.7
78479;SHT31;67769;51.972;5.668;2023-04-02T04:15:07;9.2;61.4
78479;SHT31;67769;51.972;5.668;2023-04-02T04:17:47;9.2;61.5
78479;SHT31;67769;51.972;5.668;2023-04-02T04:20:24;9.1;61.6
78479;SHT31;67769;51.972;5.668;2023-04-02T04:22:54;9.1;62.1
78479;SHT31;67769;51.972;5.668;2023-04-02T04:25:29;9.1;61.9
78479;SHT31;67769;51.972;5.668;2023-04-02T04:28:09;9.1;62.0
78479;SHT31;67769;51.972;5.668;2023-04-02T04:30:50;9.1;62.4
78479;SHT31;67769;51.972;5.668;2023-04-02T04:33:24;9.1;60.9
78479;SHT31;67769;51.972;5.668;2023-04-02T04:35:57;9.0;61.0
78479;SHT31;67769;51.972;5.668;2023-04-02T04:38:31;9.0;60.9
78479;SHT31;67769;51.972;5.668;2023-04-02T04:41:04;9.0;60.5
78479;SHT31;67769;51.972;5.668;2023-04-02T04:43:44;9.0;59.4
78479;SHT31;67769;51.972;5.668;2023-04-02T04:46:19;9.0;59.4
78479;SHT31;67769;51.972;5.668;2023-04-02T04:48:56;8.9;59.1
78479;SHT31;67769;51.972;5.668;2023-04-02T04:51:34;8.9;59.0
78479;SHT31;67769;51.972;5.668;2023-04-02T04:54:11;8.9;59.2
78479;SHT31;67769;51.972;5.668;2023-04-02T04:56:45;8.8;58.7
78479;SHT31;67769;51.972;5.668;2023-04-02T04:59:21;8.8;59.2
78479;SHT31;67769;51.972;5.668;2023-04-02T05:02:03;8.8;59.3
78479;SHT31;67769;51.972;5.668;2023-04-02T05:04:37;8.8;58.9
78479;SHT31;67769;51.972;5.668;2023-04-02T05:07:11;8.9;58.3
78479;SHT31;67769;51.972;5.668;2023-04-02T05:09:52;8.9;57.5
78479;SHT31;67769;51.972;5.668;2023-04-02T05:12:33;8.8;58.0
78479;SHT31;67769;51.972;5.668;2023-04-02T05:15:14;8.8;57.3
78479;SHT31;67769;51.972;5.668;2023-04-02T05:17:53;8.8;57.0
78479;SHT31;67769;51.972;5.668;2023-04-02T05:20:28;8.7;57.3
78479;SHT31;67769;51.972;5.668;2023-04-02T05:23:03;8.7;57.5
78479;SHT31;67769;51.972;5.668;2023-04-02T05:25:51;8.6;57.9
78479;SHT31;67769;51.972;5.668;2023-04-02T05:28:27;8.6;57.5
78479;SHT31;67769;51.972;5.668;2023-04-02T05:31:01;8.6;57.5
78479;SHT31;67769;51.972;5.668;2023-04-02T05:33:34;8.5;57.9
78479;SHT31;67769;51.972;5.668;2023-04-02T05:36:08;8.5;57.8
78479;SHT31;67769;51.972;5.668;2023-04-02T05:38:43;8.4;56.6
78479;SHT31;67769;51.972;5.668;2023-04-02T05:41:21;8.4;55.8
78479;SHT31;67769;51.972;5.668;2023-04-02T05:44:01;8.3;56.2
78479;SHT31;67769;51.972;5.668;2023-04-02T05:46:34;8.3;55.8
78479;SHT31;67769;51.972;5.668;2023-04-02T05:49:12;8.2;56.0
78479;SHT31;67769;51.972;5.668;2023-04-02T05:51:47;8.2;56.2
78479;SHT31;67769;51.972;5.668;2023-04-02T05:54:23;8.1;56.4
78479;SHT31;67769;51.972;5.668;2023-04-02T05:56:59;8.1;56.2
78479;SHT31;67769;51.972;5.668;2023-04-02T05:59:35;8.1;56.4
78479;SHT31;67769;51.972;5.668;2023-04-02T06:02:16;8.0;56.5
78479;SHT31;67769;51.972;5.668;2023-04-02T06:04:53;8.0;56.6
78479;SHT31;67769;51.972;5.668;2023-04-02T06:07:28;8.0;56.8
78479;SHT31;67769;51.972;5.668;2023-04-02T06:10:06;8.0;56.5
78479;SHT31;67769;51.972;5.668;2023-04-02T06:12:42;8.0;56.5
78479;SHT31;67769;51.972;5.668;2023-04-02T06:15:15;8.0;56.4
78479;SHT31;67769;51.972;5.668;2023-04-02T06:17:48;7.9;56.4
78479;SHT31;67769;51.972;5.668;2023-04-02T06:20:19;7.9;55.6
78479;SHT31;67769;51.972;5.668;2023-04-02T06:22:54;7.9;55.5
78479;SHT31;67769;51.972;5.668;2023-04-02T06:25:28;7.9;55.7
78479;SHT31;67769;51.972;5.668;2023-04-02T06:28:02;7.9;55.7
78479;SHT31;67769;51.972;5.668;2023-04-02T06:30:37;7.9;55.8
78479;SHT31;67769;51.972;5.668;2023-04-02T06:33:10;7.9;56.0
78479;SHT31;67769;51.972;5.668;2023-04-02T06:35:42;7.9;56.5
78479;SHT31;67769;51.972;5.668;2023-04-02T06:38:17;7.8;56.9
78479;SHT31;67769;51.972;5.668;2023-04-02T06:40:52;7.8;56.7
78479;SHT31;67769;51.972;5.668;2023-04-02T06:43:27;7.8;57.3
78479;SHT31;67769;51.972;5.668;2023-04-02T06:46:06;7.8;57.4
78479;SHT31;67769;51.972;5.668;2023-04-02T06:48:40;7.8;57.7
78479;SHT31;67769;51.972;5.668;2023-04-02T06:51:13;7.8;56.6
78479;SHT31;67769;51.972;5.668;2023-04-02T06:53:46;7.8;55.9
78479;SHT31;67769;51.972;5.668;2023-04-02T06:56:22;7.8;55.6
78479;SHT31;67769;51.972;5.668;2023-04-02T06:58:54;7.8;55.6
78479;SHT31;67769;51.972;5.668;2023-04-02T07:01:27;7.7;55.8
78479;SHT31;67769;51.972;5.668;2023-04-02T07:03:59;7.7;56.1
78479;SHT31;67769;51.972;5.668;2023-04-02T07:06:29;7.7;55.9
78479;SHT31;67769;51.972;5.668;2023-04-02T07:08:58;7.6;55.8
78479;SHT31;67769;51.972;5.668;2023-04-02T07:11:28;7.6;56.7
78479;SHT31;67769;51.972;5.668;2023-04-02T07:13:58;7.6;56.8
78479;SHT31;67769;51.972;5.668;2023-04-02T07:16:30;7.6;57.0
78479;SHT31;67769;51.972;5.668;2023-04-02T07:19:00;7.6;56.7
78479;SHT31;67769;51.972;5.668;2023-04-02T07:21:30;7.6;56.8
78479;SHT31;67769;51.972;5.668;2023-04-02T07:24:00;7.6;56.8
78479;SHT31;67769;51.972;5.668;2023-04-02T07:26:30;7.6;57.1
78479;SHT31;67769;51.972;5.668;2023-04-02T07:28:59;7.6;56.5
78479;SHT31;67769;51.972;5.668;2023-04-02T07:31:29;7.7;56.4
78479;SHT31;67769;51.972;5.668;2023-04-02T07:34:01;7.7;55.9
78479;SHT31;67769;51.972;5.668;2023-04-02T07:36:31;7.7;56.6
78479;SHT31;67769;51.972;5.668;2023-04-02T07:39:01;7.7;56.3
78479;SHT31;67769;51.972;5.668;2023-04-02T07:41:31;7.7;56.5
78479;SHT31;67769;51.972;5.668;2023-04-02T07:44:00;7.7;55.6
78479;SHT31;67769;51.972;5.668;2023-04-02T07:46:30;7.7;55.4
78479;SHT31;67769;51.972;5.668;2023-04-02T07:48:59;7.6;55.0
78479;SHT31;67769;51.972;5.668;2023-04-02T07:51:29;7.6;55.8
78479;SHT31;67769;51.972;5.668;2023-04-02T07:54:00;7.6;56.0
78479;SHT31;67769;51.972;5.668;2023-04-02T07:56:31;7.6;56.1
78479;SHT31;67769;51.972;5.668;2023-04-02T07:59:03;7.6;57.1
78479;SHT31;67769;51.972;5.668;2023-04-02T08:01:35;7.6;57.3
78479;SHT31;67769;51.972;5.668;2023-04-02T08:04:17;7.7;57.6
78479;SHT31;67769;51.972;5.668;2023-04-02T08:06:49;7.7;57.0
78479;SHT31;67769;51.972;5.668;2023-04-02T08:09:19;7.8;56.7
78479;SHT31;67769;51.972;5.668;2023-04-02T08:11:49;7.8;56.5
78479;SHT31;67769;51.972;5.668;2023-04-02T08:14:18;7.9;56.2
78479;SHT31;67769;51.972;5.668;2023-04-02T08:16:51;7.9;55.8
78479;SHT31;67769;51.972;5.668;2023-04-02T08:19:22;7.9;57.1
78479;SHT31;67769;51.972;5.668;2023-04-02T08:21:54;7.9;56.3
78479;SHT31;67769;51.972;5.668;2023-04-02T08:24:24;8.0;56.1
78479;SHT31;67769;51.972;5.668;2023-04-02T08:26:56;8.0;55.9
78479;SHT31;67769;51.972;5.668;2023-04-02T08:29:25;8.0;56.2
78479;SHT31;67769;51.972;5.668;2023-04-02T08:31:59;8.0;55.5
78479;SHT31;67769;51.972;5.668;2023-04-02T08:34:28;8.1;55.5
78479;SHT31;67769;51.972;5.668;2023-04-02T08:36:58;8.1;55.2
78479;SHT31;67769;51.972;5.668;2023-04-02T08:39:28;8.1;55.6
78479;SHT31;67769;51.972;5.668;2023-04-02T08:42:05;8.1;55.1
78479;SHT31;67769;51.972;5.668;2023-04-02T08:44:46;8.1;55.8
78479;SHT31;67769;51.972;5.668;2023-04-02T08:47:18;8.1;55.6
78479;SHT31;67769;51.972;5.668;2023-04-02T08:49:57;8.1;55.7
78479;SHT31;67769;51.972;5.668;2023-04-02T08:52:30;8.1;55.7
78479;SHT31;67769;51.972;5.668;2023-04-02T08:55:02;8.2;56.1
78479;SHT31;67769;51.972;5.668;2023-04-02T08:57:42;8.2;55.6
78479;SHT31;67769;51.972;5.668;2023-04-02T09:00:25;8.3;55.2
78479;SHT31;67769;51.972;5.668;2023-04-02T09:02:59;8.3;55.0
78479;SHT31;67769;51.972;5.668;2023-04-02T09:05:38;8.3;54.8
78479;SHT31;67769;51.972;5.668;2023-04-02T09:08:16;8.3;54.6
78479;SHT31;67769;51.972;5.668;2023-04-02T09:10:52;8.4;55.0
78479;SHT31;67769;51.972;5.668;2023-04-02T09:13:26;8.4;54.8
78479;SHT31;67769;51.972;5.668;2023-04-02T09:16:02;8.4;54.6
78479;SHT31;67769;51.972;5.668;2023-04-02T09:18:36;8.4;54.3
78479;SHT31;67769;51.972;5.668;2023-04-02T09:21:30;8.4;54.3
78479;SHT31;67769;51.972;5.668;2023-04-02T09:24:01;8.5;55.1
78479;SHT31;67769;51.972;5.668;2023-04-02T09:26:33;8.6;54.7
78479;SHT31;67769;51.972;5.668;2023-04-02T09:29:18;8.7;54.2
78479;SHT31;67769;51.972;5.668;2023-04-02T09:32:00;8.8;53.2
78479;SHT31;67769;51.972;5.668;2023-04-02T09:34:35;8.8;52.8
78479;SHT31;67769;51.972;5.668;2023-04-02T09:37:15;8.8;53.5
78479;SHT31;67769;51.972;5.668;2023-04-02T09:39:45;8.8;53.3
78479;SHT31;67769;51.972;5.668;2023-04-02T09:42:31;8.8;53.7
78479;SHT31;67769;51.972;5.668;2023-04-02T09:45:19;8.9;53.2
78479;SHT31;67769;51.972;5.668;2023-04-02T09:47:51;8.9;52.4
78479;SHT31;67769;51.972;5.668;2023-04-02T09:50:30;8.9;52.8
78479;SHT31;67769;51.972;5.668;2023-04-02T09:53:22;8.9;52.1
78479;SHT31;67769;51.972;5.668;2023-04-02T09:56:08;8.9;51.8
78479;SHT31;67769;51.972;5.668;2023-04-02T09:58:39;8.9;51.5
78479;SHT31;67769;51.972;5.668;2023-04-02T10:01:27;8.9;51.9
78479;SHT31;67769;51.972;5.668;2023-04-02T10:03:58;8.9;51.2
78479;SHT31;67769;51.972;5.668;2023-04-02T10:06:31;8.9;52.0
78479;SHT31;67769;51.972;5.668;2023-04-02T10:09:26;8.9;51.5
78479;SHT31;67769;51.972;5.668;2023-04-02T10:11:59;8.9;52.2
78479;SHT31;67769;51.972;5.668;2023-04-02T10:14:33;9.0;51.8
78479;SHT31;67769;51.972;5.668;2023-04-02T10:17:11;9.0;50.6
78479;SHT31;67769;51.972;5.668;2023-04-02T10:19:47;9.1;51.8
78479;SHT31;67769;51.972;5.668;2023-04-02T10:22:20;9.1;51.7
78479;SHT31;67769;51.972;5.668;2023-04-02T10:24:50;9.2;50.6
78479;SHT31;67769;51.972;5.668;2023-04-02T10:27:29;9.2;51.2
78479;SHT31;67769;51.972;5.668;2023-04-02T10:30:12;9.3;49.7
78479;SHT31;67769;51.972;5.668;2023-04-02T10:32:49;9.4;49.1
78479;SHT31;67769;51.972;5.668;2023-04-02T10:35:32;9.4;49.1
78479;SHT31;67769;51.972;5.668;2023-04-02T10:39:12;9.5;49.5
78479;SHT31;67769;51.972;5.668;2023-04-02T10:41:51;9.6;48.9
78479;SHT31;67769;51.972;5.668;2023-04-02T10:44:32;9.7;48.6
78479;SHT31;67769;51.972;5.668;2023-04-02T10:47:17;9.9;48.2
78479;SHT31;67769;51.972;5.668;2023-04-02T10:49:59;10.1;47.9
78479;SHT31;67769;51.972;5.668;2023-04-02T10:52:40;10.4;48.8
78479;SHT31;67769;51.972;5.668;2023-04-02T10:55:18;10.6;47.6
78479;SHT31;67769;51.972;5.668;2023-04-02T10:57:52;10.8;46.3
78479;SHT31;67769;51.972;5.668;2023-04-02T11:00:26;11.1;45.2
78479;SHT31;67769;51.972;5.668;2023-04-02T11:03:01;11.3;44.5
78479;SHT31;67769;51.972;5.668;2023-04-02T11:05:39;11.5;44.3
78479;SHT31;67769;51.972;5.668;2023-04-02T11:08:17;11.7;48.2
78479;SHT31;67769;51.972;5.668;2023-04-02T11:10:54;11.9;45.3
78479;SHT31;67769;51.972;5.668;2023-04-02T11:13:28;12.2;46.2
78479;SHT31;67769;51.972;5.668;2023-04-02T11:15:59;12.4;46.7
78479;SHT31;67769;51.972;5.668;2023-04-02T11:18:32;12.6;44.4
78479;SHT31;67769;51.972;5.668;2023-04-02T11:21:05;12.8;45.0
78479;SHT31;67769;51.972;5.668;2023-04-02T11:23:38;13.0;41.2
78479;SHT31;67769;51.972;5.668;2023-04-02T11:27:05;13.1;40.1
78479;SHT31;67769;51.972;5.668;2023-04-02T11:29:37;13.2;39.4
78479;SHT31;67769;51.972;5.668;2023-04-02T11:32:32;13.2;38.9
78479;SHT31;67769;51.972;5.668;2023-04-02T11:38:00;13.3;37.1
78479;SHT31;67769;51.972;5.668;2023-04-02T11:40:49;13.3;38.7
78479;SHT31;67769;51.972;5.668;2023-04-02T11:43:52;13.4;37.6
78479;SHT31;67769;51.972;5.668;2023-04-02T11:46:45;13.4;38.4
78479;SHT31;67769;51.972;5.668;2023-04-02T11:49:34;13.4;38.9
78479;SHT31;67769;51.972;5.668;2023-04-02T11:52:23;13.4;38.9
78479;SHT31;67769;51.972;5.668;2023-04-02T11:55:23;13.4;39.7
78479;SHT31;67769;51.972;5.668;2023-04-02T11:58:21;13.5;39.4
78479;SHT31;67769;51.972;5.668;2023-04-02T12:01:32;13.5;39.4
78479;SHT31;67769;51.972;5.668;2023-04-02T12:05:26;13.6;39.3
78479;SHT31;67769;51.972;5.668;2023-04-02T12:08:17;13.6;39.8
78479;SHT31;67769;51.972;5.668;2023-04-02T12:10:55;13.7;40.4
78479;SHT31;67769;51.972;5.668;2023-04-02T12:13:48;13.8;39.6
78479;SHT31;67769;51.972;5.668;2023-04-02T12:16:18;13.8;39.9
78479;SHT31;67769;51.972;5.668;2023-04-02T12:18:52;13.9;39.0
78479;SHT31;67769;51.972;5.668;2023-04-02T12:21:26;14.0;39.7
78479;SHT31;67769;51.972;5.668;2023-04-02T12:23:58;14.0;37.8
78479;SHT31;67769;51.972;5.668;2023-04-02T12:26:31;14.1;38.9
78479;SHT31;67769;51.972;5.668;2023-04-02T12:29:24;14.1;38.2
78479;SHT31;67769;51.972;5.668;2023-04-02T12:31:55;14.2;37.9
78479;SHT31;67769;51.972;5.668;2023-04-02T12:34:27;14.2;40.5
78479;SHT31;67769;51.972;5.668;2023-04-02T12:37:00;14.3;39.7
78479;SHT31;67769;51.972;5.668;2023-04-02T12:39:33;14.3;39.9
78479;SHT31;67769;51.972;5.668;2023-04-02T12:42:04;14.3;37.6
78479;SHT31;67769;51.972;5.668;2023-04-02T12:44:35;14.4;36.8
78479;SHT31;67769;51.972;5.668;2023-04-02T12:47:05;14.4;36.8
78479;SHT31;67769;51.972;5.668;2023-04-02T12:49:37;14.4;37.1
78479;SHT31;67769;51.972;5.668;2023-04-02T12:52:11;14.5;37.0
78479;SHT31;67769;51.972;5.668;2023-04-02T12:54:47;14.5;35.9
78479;SHT31;67769;51.972;5.668;2023-04-02T12:57:28;14.5;37.1
78479;SHT31;67769;51.972;5.668;2023-04-02T12:59:58;14.4;35.9
78479;SHT31;67769;51.972;5.668;2023-04-02T13:02:44;14.4;36.6
78479;SHT31;67769;51.972;5.668;2023-04-02T13:05:33;14.4;36.3
78479;SHT31;67769;51.972;5.668;2023-04-02T13:08:15;14.4;35.3
78479;SHT31;67769;51.972;5.668;2023-04-02T13:10:53;14.4;34.5
78479;SHT31;67769;51.972;5.668;2023-04-02T13:13:29;14.4;35.5
78479;SHT31;67769;51.972;5.668;2023-04-02T13:16:02;14.3;35.4
78479;SHT31;67769;51.972;5.668;2023-04-02T13:18:35;14.3;35.8
78479;SHT31;67769;51.972;5.668;2023-04-02T13:21:06;14.2;35.7
78479;SHT31;67769;51.972;5.668;2023-04-02T13:23:40;14.2;35.6
78479;SHT31;67769;51.972;5.668;2023-04-02T13:26:18;14.1;36.4
78479;SHT31;67769;51.972;5.668;2023-04-02T13:29:17;14.1;37.0
78479;SHT31;67769;51.972;5.668;2023-04-02T13:31:49;14.1;35.7
78479;SHT31;67769;51.972;5.668;2023-04-02T13:34:19;14.1;35.2
78479;SHT31;67769;51.972;5.668;2023-04-02T13:36:49;14.1;35.1
78479;SHT31;67769;51.972;5.668;2023-04-02T13:39:19;14.1;35.5
78479;SHT31;67769;51.972;5.668;2023-04-02T13:41:54;14.1;36.6
78479;SHT31;67769;51.972;5.668;2023-04-02T13:44:27;14.1;35.8
78479;SHT31;67769;51.972;5.668;2023-04-02T13:46:59;14.2;36.2
78479;SHT31;67769;51.972;5.668;2023-04-02T13:49:32;14.2;35.6
78479;SHT31;67769;51.972;5.668;2023-04-02T13:52:03;14.2;36.4
78479;SHT31;67769;51.972;5.668;2023-04-02T13:54:42;14.2;36.4
78479;SHT31;67769;51.972;5.668;2023-04-02T13:57:13;14.2;36.8
78479;SHT31;67769;51.972;5.668;2023-04-02T13:59:42;14.2;36.6
78479;SHT31;67769;51.972;5.668;2023-04-02T14:02:16;14.2;36.7
78479;SHT31;67769;51.972;5.668;2023-04-02T14:04:48;14.2;37.5
78479;SHT31;67769;51.972;5.668;2023-04-02T14:07:36;14.2;35.9
78479;SHT31;67769;51.972;5.668;2023-04-02T14:10:21;14.2;35.8
78479;SHT31;67769;51.972;5.668;2023-04-02T14:13:08;14.2;36.3
78479;SHT31;67769;51.972;5.668;2023-04-02T14:15:55;14.1;36.8
78479;SHT31;67769;51.972;5.668;2023-04-02T14:18:41;14.1;37.1
78479;SHT31;67769;51.972;5.668;2023-04-02T14:21:23;14.1;36.7
78479;SHT31;67769;51.972;5.668;2023-04-02T14:24:07;14.1;36.7
78479;SHT31;67769;51.972;5.668;2023-04-02T14:26:47;14.1;36.1
78479;SHT31;67769;51.972;5.668;2023-04-02T14:29:25;14.0;36.3
78479;SHT31;67769;51.972;5.668;2023-04-02T14:32:03;14.0;37.0
78479;SHT31;67769;51.972;5.668;2023-04-02T14:34:43;14.0;36.8
78479;SHT31;67769;51.972;5.668;2023-04-02T14:37:23;13.9;36.5
78479;SHT31;67769;51.972;5.668;2023-04-02T14:40:09;13.9;36.2
78479;SHT31;67769;51.972;5.668;2023-04-02T14:42:46;13.9;36.1
78479;SHT31;67769;51.972;5.668;2023-04-02T14:45:31;13.9;36.5
78479;SHT31;67769;51.972;5.668;2023-04-02T14:48:15;13.8;36.6
78479;SHT31;67769;51.972;5.668;2023-04-02T14:50:54;13.8;36.4
78479;SHT31;67769;51.972;5.668;2023-04-02T14:53:29;13.8;36.5
78479;SHT31;67769;51.972;5.668;2023-04-02T14:56:06;13.8;37.0
78479;SHT31;67769;51.972;5.668;2023-04-02T14:58:43;13.9;36.4
78479;SHT31;67769;51.972;5.668;2023-04-02T15:01:20;13.9;36.3
78479;SHT31;67769;51.972;5.668;2023-04-02T15:03:55;13.8;36.0
78479;SHT31;67769;51.972;5.668;2023-04-02T15:06:30;13.8;36.5
78479;SHT31;67769;51.972;5.668;2023-04-02T15:09:06;13.8;36.1
78479;SHT31;67769;51.972;5.668;2023-04-02T15:11:43;13.8;36.2
78479;SHT31;67769;51.972;5.668;2023-04-02T15:14:20;13.8;36.4
78479;SHT31;67769;51.972;5.668;2023-04-02T15:16:52;13.8;36.3
78479;SHT31;67769;51.972;5.668;2023-04-02T15:19:22;13.7;36.8
78479;SHT31;67769;51.972;5.668;2023-04-02T15:22:06;13.7;36.9
78479;SHT31;67769;51.972;5.668;2023-04-02T15:24:47;13.7;37.0
78479;SHT31;67769;51.972;5.668;2023-04-02T15:27:28;13.6;37.1
78479;SHT31;67769;51.972;5.668;2023-04-02T15:30:08;13.6;37.0
78479;SHT31;67769;51.972;5.668;2023-04-02T15:32:42;13.6;36.6
78479;SHT31;67769;51.972;5.668;2023-04-02T15:35:22;13.6;36.6
78479;SHT31;67769;51.972;5.668;2023-04-02T15:37:59;13.6;37.1
78479;SHT31;67769;51.972;5.668;2023-04-02T15:40:52;13.6;37.5
78479;SHT31;67769;51.972;5.668;2023-04-02T15:43:28;13.6;36.8
78479;SHT31;67769;51.972;5.668;2023-04-02T15:46:20;13.6;37.3
78479;SHT31;67769;51.972;5.668;2023-04-02T15:49:28;13.5;37.2
78479;SHT31;67769;51.972;5.668;2023-04-02T15:52:05;13.5;36.3
78479;SHT31;67769;51.972;5.668;2023-04-02T15:55:20;13.5;36.6
78479;SHT31;67769;51.972;5.668;2023-04-02T15:58:34;13.4;36.8
78479;SHT31;67769;51.972;5.668;2023-04-02T16:01:16;13.4;37.2
78479;SHT31;67769;51.972;5.668;2023-04-02T16:04:10;13.4;37.4
78479;SHT31;67769;51.972;5.668;2023-04-02T16:07:40;13.4;37.5
78479;SHT31;67769;51.972;5.668;2023-04-02T16:10:19;13.3;37.5
78479;SHT31;67769;51.972;5.668;2023-04-02T16:12:54;13.3;37.8
78479;SHT31;67769;51.972;5.668;2023-04-02T16:15:29;13.3;37.8
78479;SHT31;67769;51.972;5.668;2023-04-02T16:18:09;13.3;37.8
78479;SHT31;67769;51.972;5.668;2023-04-02T16:20:45;13.3;38.3
78479;SHT31;67769;51.972;5.668;2023-04-02T16:23:19;13.3;38.1
78479;SHT31;67769;51.972;5.668;2023-04-02T16:25:59;13.2;38.2
78479;SHT31;67769;51.972;5.668;2023-04-02T16:28:36;13.2;37.5
78479;SHT31;67769;51.972;5.668;2023-04-02T16:31:15;13.2;37.4
78479;SHT31;67769;51.972;5.668;2023-04-02T16:33:55;13.2;37.6
78479;SHT31;67769;51.972;5.668;2023-04-02T16:36:40;13.1;37.5
78479;SHT31;67769;51.972;5.668;2023-04-02T16:39:18;13.1;38.0
78479;SHT31;67769;51.972;5.668;2023-04-02T16:42:02;13.1;38.2
78479;SHT31;67769;51.972;5.668;2023-04-02T16:44:46;13.0;38.2
78479;SHT31;67769;51.972;5.668;2023-04-02T16:47:34;13.0;38.3
78479;SHT31;67769;51.972;5.668;2023-04-02T16:50:14;13.0;38.6
78479;SHT31;67769;51.972;5.668;2023-04-02T16:52:51;12.9;38.5
78479;SHT31;67769;51.972;5.668;2023-04-02T16:55:40;12.9;38.3
78479;SHT31;67769;51.972;5.668;2023-04-02T16:58:29;12.9;38.3
78479;SHT31;67769;51.972;5.668;2023-04-02T17:01:09;12.8;39.2
78479;SHT31;67769;51.972;5.668;2023-04-02T17:03:49;12.8;39.0
78479;SHT31;67769;51.972;5.668;2023-04-02T17:06:34;12.8;38.8
78479;SHT31;67769;51.972;5.668;2023-04-02T17:09:17;12.8;38.9
78479;SHT31;67769;51.972;5.668;2023-04-02T17:11:53;12.8;39.2
78479;SHT31;67769;51.972;5.668;2023-04-02T17:14:30;12.7;39.0
78479;SHT31;67769;51.972;5.668;2023-04-02T17:17:03;12.7;39.6
78479;SHT31;67769;51.972;5.668;2023-04-02T17:19:33;12.7;39.6
78479;SHT31;67769;51.972;5.668;2023-04-02T17:22:04;12.6;39.5